Time;durP1;ratioP1;P1;durP2;ratioP2;P2;SDS_P1;SDS_P2;PMS_P1;PMS_P2;Temp;Humidity;BMP_temperature;BMP_pressure;BME280_temperature;BME280_humidity;BME280_pressure;Samples;Min_cycle;Max_cycle;Signal;HPM_P1;HPM_P2
2023/09/21 00:01:19;;;;;;;2.20;2.03;;;20.60;99.90;;;;;;5024951;28;20221;-66
2023/09/21 00:03:48;;;;;;;3.83;1.77;;;20.60;99.90;;;;;;5023955;28;20671;-66
2023/09/21 00:06:18;;;;;;;3.60;2.17;;;20.60;99.90;;;;;;5026783;28;20193;-65
2023/09/21 00:08:48;;;;;;;2.40;2.20;;;20.60;99.90;;;;;;5021183;28;20197;-66
2023/09/21 00:11:18;;;;;;;2.63;2.00;;;20.60;99.90;;;;;;5025316;28;20221;-66
2023/09/21 00:13:46;;;;;;;4.43;2.37;;;20.60;99.90;;;;;;5040851;28;20226;-66
2023/09/21 00:16:18;;;;;;;2.47;2.27;;;20.60;99.90;;;;;;5022277;28;20249;-66
2023/09/21 00:18:48;;;;;;;3.50;2.20;;;20.60;99.90;;;;;;5022409;28;20229;-67
2023/09/21 00:21:17;;;;;;;4.30;2.10;;;20.60;99.90;;;;;;5026154;28;20193;-67
2023/09/21 00:23:47;;;;;;;2.13;2.00;;;20.60;99.90;;;;;;5026852;28;20203;-66
2023/09/21 00:26:17;;;;;;;2.70;2.30;;;20.60;99.90;;;;;;5023417;28;20229;-67
2023/09/21 00:28:46;;;;;;;3.60;2.10;;;20.60;99.90;;;;;;5023145;28;20223;-65
2023/09/21 00:31:14;;;;;;;5.57;2.20;;;20.60;99.90;;;;;;5021600;28;20720;-66
2023/09/21 00:33:43;;;;;;;2.80;2.60;;;20.60;99.90;;;;;;5023635;28;20735;-66
2023/09/21 00:36:17;;;;;;;2.30;2.10;;;20.60;99.90;;;;;;5023117;28;20221;-66
2023/09/21 00:38:48;;;;;;;1.80;1.70;;;20.70;99.90;;;;;;5041500;28;20252;-66
2023/09/21 00:41:18;;;;;;;2.30;2.10;;;20.70;99.90;;;;;;5023693;28;20703;-66
2023/09/21 00:43:48;;;;;;;7.60;2.13;;;20.70;99.90;;;;;;5020674;28;20218;-66
2023/09/21 00:46:21;;;;;;;3.30;1.83;;;20.70;99.90;;;;;;5027479;28;20264;-66
2023/09/21 00:48:51;;;;;;;5.40;2.37;;;20.70;99.90;;;;;;5023061;28;20708;-66
2023/09/21 00:51:20;;;;;;;2.67;2.20;;;20.80;99.90;;;;;;5025237;28;20810;-66
2023/09/21 00:53:49;;;;;;;2.47;2.27;;;20.80;99.90;;;;;;5022774;28;20194;-66
2023/09/21 00:56:19;;;;;;;2.30;2.07;;;20.80;99.90;;;;;;5015709;28;20236;-66
2023/09/21 00:58:49;;;;;;;2.40;2.20;;;20.80;99.90;;;;;;5026896;28;22356;-66
2023/09/21 01:01:20;;;;;;;3.07;1.90;;;20.80;99.90;;;;;;5023491;28;20312;-67
2023/09/21 01:03:50;;;;;;;1.93;1.70;;;20.80;99.90;;;;;;5021113;28;22058;-65
2023/09/21 01:06:20;;;;;;;1.90;1.90;;;20.80;99.90;;;;;;5022705;28;20217;-66
2023/09/21 01:08:49;;;;;;;2.33;2.17;;;20.80;99.90;;;;;;5024944;28;20193;-65
2023/09/21 01:11:20;;;;;;;2.27;2.10;;;20.80;99.90;;;;;;5026206;28;20267;-67
2023/09/21 01:13:49;;;;;;;6.87;2.10;;;20.80;99.90;;;;;;5023245;28;20730;-66
2023/09/21 01:16:18;;;;;;;3.47;2.00;;;20.80;99.90;;;;;;5025050;28;20225;-65
2023/09/21 01:18:47;;;;;;;2.93;1.90;;;20.80;99.90;;;;;;5026708;28;20220;-67
2023/09/21 01:21:21;;;;;;;2.27;2.10;;;20.80;99.90;;;;;;5023822;28;20197;-66
2023/09/21 01:23:52;;;;;;;3.63;2.20;;;20.80;99.90;;;;;;5023001;28;20277;-67
2023/09/21 01:26:21;;;;;;;3.13;2.13;;;20.70;99.90;;;;;;5020593;28;20223;-66
2023/09/21 01:28:49;;;;;;;4.20;2.10;;;20.70;99.90;;;;;;5019370;28;20232;-67
2023/09/21 01:31:19;;;;;;;4.27;2.37;;;20.70;99.90;;;;;;5023558;28;20217;-67
2023/09/21 01:33:47;;;;;;;2.00;1.90;;;20.60;99.90;;;;;;5019740;28;20225;-67
2023/09/21 01:36:18;;;;;;;2.30;2.10;;;20.60;99.90;;;;;;5022560;28;20898;-67
2023/09/21 01:38:47;;;;;;;4.13;2.40;;;20.60;99.90;;;;;;5026173;28;22183;-67
2023/09/21 01:41:18;;;;;;;7.07;2.40;;;20.60;99.90;;;;;;5036128;28;20676;-66
2023/09/21 01:43:47;;;;;;;4.77;1.83;;;20.70;99.90;;;;;;5020106;28;20228;-67
2023/09/21 01:46:22;;;;;;;2.43;2.10;;;20.60;99.90;;;;;;5020325;28;20673;-67
2023/09/21 01:48:51;;;;;;;4.47;2.30;;;20.60;99.90;;;;;;5022364;28;20685;-66
2023/09/21 01:51:21;;;;;;;4.60;2.00;;;20.60;99.90;;;;;;5020377;28;20209;-66
2023/09/21 01:53:49;;;;;;;2.57;2.00;;;20.60;99.90;;;;;;5028268;28;20189;-66
2023/09/21 01:56:20;;;;;;;2.10;2.00;;;20.60;99.90;;;;;;5018740;28;20230;-67
2023/09/21 01:58:49;;;;;;;3.60;2.27;;;20.60;99.90;;;;;;5024732;28;20217;-66
2023/09/21 02:01:18;;;;;;;2.33;2.07;;;20.50;99.90;;;;;;5022118;28;20217;-67
2023/09/21 02:03:47;;;;;;;4.73;2.03;;;20.60;99.90;;;;;;5020978;28;20225;-65
2023/09/21 02:06:16;;;;;;;3.27;2.33;;;20.60;99.90;;;;;;5026924;28;20185;-66
2023/09/21 02:08:45;;;;;;;1.93;1.83;;;20.60;99.90;;;;;;5021533;28;20288;-66
2023/09/21 02:11:14;;;;;;;2.30;2.10;;;20.60;99.90;;;;;;5024673;28;20693;-67
2023/09/21 02:13:44;;;;;;;3.00;2.17;;;20.50;99.90;;;;;;5019181;28;20232;-67
2023/09/21 02:16:14;;;;;;;3.77;2.10;;;20.50;99.90;;;;;;5023320;28;20221;-66
2023/09/21 02:18:44;;;;;;;3.23;2.20;;;20.50;99.90;;;;;;5021521;28;20238;-66
2023/09/21 02:21:17;;;;;;;4.93;2.20;;;20.40;99.90;;;;;;5022323;28;20196;-66
2023/09/21 02:23:46;;;;;;;3.47;2.23;;;20.40;99.90;;;;;;5025296;28;20193;-66
2023/09/21 02:26:15;;;;;;;2.27;2.10;;;20.40;99.90;;;;;;5017864;28;20225;-67
2023/09/21 02:28:45;;;;;;;2.17;1.97;;;20.40;99.90;;;;;;5023293;28;20267;-65
2023/09/21 02:31:13;;;;;;;5.67;2.00;;;20.40;99.90;;;;;;5020353;28;20221;-67
2023/09/21 02:33:42;;;;;;;2.13;1.90;;;20.40;99.90;;;;;;5019921;28;20281;-66
2023/09/21 02:36:19;;;;;;;3.57;2.20;;;20.40;99.90;;;;;;5019501;28;20818;-66
2023/09/21 02:38:48;;;;;;;2.10;1.87;;;20.40;99.90;;;;;;5019278;28;20196;-66
2023/09/21 02:41:18;;;;;;;2.07;1.97;;;20.40;99.90;;;;;;5025686;28;20213;-66
2023/09/21 02:43:47;;;;;;;1.90;1.80;;;20.30;99.90;;;;;;5020329;28;20232;-66
2023/09/21 02:46:16;;;;;;;2.70;2.27;;;20.30;99.90;;;;;;5023649;28;20225;-66
2023/09/21 02:48:44;;;;;;;2.60;2.40;;;20.20;99.90;;;;;;5020489;28;20233;-66
2023/09/21 02:51:15;;;;;;;3.13;2.30;;;20.10;99.90;;;;;;5038980;28;20197;-67
2023/09/21 02:53:46;;;;;;;2.03;1.93;;;20.10;99.90;;;;;;5024296;28;20486;-66
2023/09/21 02:56:19;;;;;;;2.50;2.00;;;20.00;99.90;;;;;;5019273;28;20564;-67
2023/09/21 02:58:49;;;;;;;2.50;2.10;;;19.90;99.90;;;;;;5027813;28;20316;-66
2023/09/21 03:01:20;;;;;;;2.93;2.47;;;19.80;99.90;;;;;;5025958;28;20691;-67
2023/09/21 03:03:50;;;;;;;3.53;2.80;;;19.70;99.90;;;;;;5021110;28;20272;-67
2023/09/21 03:06:19;;;;;;;3.87;2.63;;;19.50;99.90;;;;;;5025659;28;20197;-67
2023/09/21 03:08:48;;;;;;;2.50;2.37;;;19.30;99.90;;;;;;5027668;28;20263;-65
2023/09/21 03:11:16;;;;;;;2.93;2.57;;;19.00;99.90;;;;;;5027138;28;20275;-67
2023/09/21 03:13:45;;;;;;;2.70;2.50;;;18.60;99.90;;;;;;5023942;28;20221;-67
2023/09/21 03:16:17;;;;;;;3.20;2.87;;;18.40;99.90;;;;;;5024445;28;20263;-66
2023/09/21 03:18:47;;;;;;;6.10;2.90;;;18.20;99.90;;;;;;5026404;28;20221;-66
2023/09/21 03:21:16;;;;;;;5.57;2.80;;;18.10;99.90;;;;;;5025780;28;20646;-65
2023/09/21 03:23:46;;;;;;;5.80;2.97;;;18.00;99.90;;;;;;5025128;28;20255;-66
2023/09/21 03:26:18;;;;;;;2.97;2.77;;;17.80;99.90;;;;;;5027460;28;20228;-66
2023/09/21 03:28:48;;;;;;;2.90;2.70;;;17.70;99.90;;;;;;5026201;28;20225;-65
2023/09/21 03:31:18;;;;;;;5.40;3.00;;;17.60;99.90;;;;;;5024642;28;20308;-66
2023/09/21 03:33:47;;;;;;;3.23;2.90;;;17.60;99.90;;;;;;5022798;28;20237;-66
2023/09/21 03:36:16;;;;;;;4.13;2.87;;;17.60;99.90;;;;;;5023897;28;20252;-66
2023/09/21 03:38:49;;;;;;;4.13;2.57;;;17.50;99.90;;;;;;5022875;28;20669;-66
2023/09/21 03:41:17;;;;;;;3.03;2.90;;;17.50;99.90;;;;;;5024206;28;21002;-66
2023/09/21 03:43:46;;;;;;;8.23;3.17;;;17.50;99.90;;;;;;5021774;28;20229;-66
2023/09/21 03:46:14;;;;;;;5.23;3.03;;;17.40;99.90;;;;;;5025758;28;20251;-66
2023/09/21 03:48:44;;;;;;;2.90;2.70;;;17.40;99.90;;;;;;5022196;28;20244;-66
2023/09/21 03:51:13;;;;;;;3.53;3.20;;;17.40;99.90;;;;;;5026151;28;20189;-64
2023/09/21 03:53:42;;;;;;;7.17;3.30;;;17.40;99.90;;;;;;5027396;28;20202;-66
2023/09/21 03:56:10;;;;;;;4.53;3.20;;;17.40;99.90;;;;;;5023212;28;20266;-66
2023/09/21 03:58:39;;;;;;;4.40;2.70;;;17.40;99.90;;;;;;5027346;28;20319;-66
2023/09/21 04:01:09;;;;;;;2.43;2.33;;;17.40;99.90;;;;;;5026665;28;20951;-66
2023/09/21 04:03:38;;;;;;;4.47;2.80;;;17.40;99.90;;;;;;5024889;28;20227;-66
2023/09/21 04:06:08;;;;;;;5.57;3.10;;;17.50;99.90;;;;;;5030711;28;20716;-65
2023/09/21 04:08:36;;;;;;;3.53;3.20;;;17.50;99.90;;;;;;5021840;28;20615;-66
2023/09/21 04:11:05;;;;;;;4.90;2.97;;;17.50;99.90;;;;;;5040434;28;20336;-66
2023/09/21 04:13:34;;;;;;;4.10;3.27;;;17.40;99.90;;;;;;5022479;28;20229;-66
2023/09/21 04:16:06;;;;;;;6.60;3.23;;;17.40;99.90;;;;;;5024870;28;20343;-64
2023/09/21 04:18:35;;;;;;;3.20;2.90;;;17.40;99.90;;;;;;5025399;28;20302;-66
2023/09/21 04:21:10;;;;;;;3.30;3.00;;;17.40;99.90;;;;;;5021598;28;20204;-66
2023/09/21 04:23:48;;;;;;;2.97;2.77;;;17.40;99.90;;;;;;5022725;28;20217;-66
2023/09/21 04:26:17;;;;;;;3.73;3.40;;;17.30;99.90;;;;;;5025285;28;20310;-66
2023/09/21 04:28:49;;;;;;;2.87;2.67;;;17.30;99.90;;;;;;5022549;28;20678;-67
2023/09/21 04:31:19;;;;;;;7.23;3.20;;;17.30;99.90;;;;;;5023948;28;20300;-66
2023/09/21 04:33:47;;;;;;;3.50;3.20;;;17.20;99.90;;;;;;5022552;28;20222;-66
2023/09/21 04:36:17;;;;;;;3.47;3.23;;;17.20;99.90;;;;;;5040119;28;20295;-64
2023/09/21 04:38:50;;;;;;;4.47;3.10;;;17.20;99.90;;;;;;5025398;28;20316;-65
2023/09/21 04:41:20;;;;;;;4.43;3.20;;;17.10;99.90;;;;;;5023563;28;20214;-66
2023/09/21 04:43:49;;;;;;;4.67;3.53;;;17.10;99.90;;;;;;5019036;28;20236;-66
2023/09/21 04:46:19;;;;;;;3.20;3.07;;;17.10;99.90;;;;;;5026951;28;20217;-65
2023/09/21 04:48:48;;;;;;;11.40;3.00;;;17.10;99.90;;;;;;5025329;28;20645;-67
2023/09/21 04:51:18;;;;;;;4.67;3.57;;;17.10;99.90;;;;;;5026354;28;20223;-66
2023/09/21 04:53:47;;;;;;;3.57;3.10;;;17.10;99.90;;;;;;5024331;28;20601;-66
2023/09/21 04:56:17;;;;;;;3.30;3.10;;;17.10;99.90;;;;;;5021150;28;20235;-66
2023/09/21 04:58:46;;;;;;;3.30;3.10;;;17.10;99.90;;;;;;5025952;28;20316;-66
2023/09/21 05:01:15;;;;;;;3.87;3.07;;;17.10;99.90;;;;;;5020155;28;20240;-66
2023/09/21 05:03:43;;;;;;;6.03;3.00;;;17.10;99.90;;;;;;5020299;28;20225;-66
2023/09/21 05:06:12;;;;;;;3.27;3.03;;;17.10;99.90;;;;;;5026336;28;20640;-67
2023/09/21 05:08:42;;;;;;;3.83;2.67;;;17.10;99.90;;;;;;5026956;28;20193;-66
2023/09/21 05:11:11;;;;;;;1.97;1.80;;;16.90;99.90;;;;;;5021387;28;20219;-66
2023/09/21 05:13:40;;;;;;;2.00;1.90;;;16.50;99.90;;;;;;5023424;28;20227;-66
2023/09/21 05:16:10;;;;;;;2.17;1.90;;;16.20;99.90;;;;;;5020925;28;20228;-66
2023/09/21 05:18:41;;;;;;;2.20;1.90;;;16.10;99.90;;;;;;5019913;28;20243;-66
2023/09/21 05:21:10;;;;;;;4.43;2.30;;;15.90;99.90;;;;;;5026242;28;20194;-65
2023/09/21 05:23:45;;;;;;;2.30;2.10;;;15.80;99.90;;;;;;5023964;28;20204;-66
2023/09/21 05:26:15;;;;;;;4.07;2.20;;;15.70;99.90;;;;;;5021487;28;20223;-66
2023/09/21 05:28:46;;;;;;;3.77;2.20;;;15.60;99.90;;;;;;5025522;28;20213;-65
2023/09/21 05:31:15;;;;;;;2.37;2.20;;;15.60;99.90;;;;;;5023361;28;20221;-66
2023/09/21 05:33:43;;;;;;;2.17;1.93;;;15.50;99.90;;;;;;5017224;28;20217;-66
2023/09/21 05:36:12;;;;;;;2.80;2.00;;;15.40;99.90;;;;;;5024766;28;20196;-65
2023/09/21 05:38:41;;;;;;;3.13;2.27;;;15.50;99.90;;;;;;5021613;28;20304;-66
2023/09/21 05:41:10;;;;;;;4.00;2.57;;;15.50;99.90;;;;;;5025878;28;20590;-66
2023/09/21 05:43:41;;;;;;;3.50;2.43;;;15.50;99.90;;;;;;5023432;28;20226;-66
2023/09/21 05:46:11;;;;;;;2.83;2.57;;;15.40;99.90;;;;;;5021287;28;20234;-65
2023/09/21 05:48:40;;;;;;;2.70;2.60;;;15.50;99.90;;;;;;5021483;28;20695;-65
2023/09/21 05:51:11;;;;;;;2.27;2.17;;;15.50;99.90;;;;;;5024320;28;20193;-65
2023/09/21 05:53:39;;;;;;;3.30;2.80;;;15.50;99.90;;;;;;5020506;28;20199;-66
2023/09/21 05:56:08;;;;;;;3.03;2.83;;;15.50;99.90;;;;;;5023015;28;20592;-65
2023/09/21 05:58:37;;;;;;;3.00;2.80;;;15.50;99.90;;;;;;5018282;28;20250;-65
2023/09/21 06:01:07;;;;;;;2.70;2.60;;;15.40;99.90;;;;;;5022018;28;20242;-65
2023/09/21 06:03:36;;;;;;;3.77;3.10;;;15.40;99.90;;;;;;5024200;28;20242;-65
2023/09/21 06:06:07;;;;;;;3.10;2.80;;;15.40;99.90;;;;;;5024207;28;20196;-65
2023/09/21 06:08:37;;;;;;;3.60;3.30;;;15.40;99.90;;;;;;5023471;28;20231;-65
2023/09/21 06:11:05;;;;;;;4.00;3.53;;;15.30;99.90;;;;;;5036793;28;20223;-65
2023/09/21 06:13:33;;;;;;;3.93;3.37;;;15.30;99.90;;;;;;5024292;28;20589;-65
2023/09/21 06:16:02;;;;;;;3.60;3.40;;;15.30;99.90;;;;;;5023076;28;20859;-65
2023/09/21 06:18:33;;;;;;;5.00;3.40;;;15.30;99.90;;;;;;5023548;28;20226;-65
2023/09/21 06:21:02;;;;;;;3.20;3.10;;;15.30;99.90;;;;;;5022788;28;20204;-65
2023/09/21 06:23:30;;;;;;;3.80;3.30;;;15.20;99.90;;;;;;5019116;28;20243;-65
2023/09/21 06:26:00;;;;;;;2.67;2.47;;;15.20;99.90;;;;;;5022850;28;20214;-65
2023/09/21 06:28:29;;;;;;;3.63;3.33;;;15.20;99.90;;;;;;5022995;28;20231;-65
2023/09/21 06:30:57;;;;;;;4.13;3.73;;;15.30;99.90;;;;;;5022811;28;20217;-65
2023/09/21 06:33:26;;;;;;;4.23;3.83;;;15.40;99.90;;;;;;5024361;28;20232;-65
2023/09/21 06:35:56;;;;;;;3.30;3.10;;;15.40;99.90;;;;;;5020126;28;20197;-65
2023/09/21 06:38:25;;;;;;;3.10;2.90;;;15.40;99.90;;;;;;5017769;28;20312;-65
2023/09/21 06:40:54;;;;;;;3.10;2.90;;;15.50;99.90;;;;;;5018275;28;20331;-65
2023/09/21 06:43:25;;;;;;;4.00;3.17;;;15.40;99.90;;;;;;5024771;28;20292;-65
2023/09/21 06:45:54;;;;;;;3.10;2.90;;;15.40;99.90;;;;;;5016198;28;20278;-65
2023/09/21 06:48:23;;;;;;;3.53;2.77;;;15.50;99.90;;;;;;5024419;28;20647;-65
2023/09/21 06:50:52;;;;;;;3.23;2.70;;;15.50;99.90;;;;;;5023295;28;20590;-65
2023/09/21 06:53:23;;;;;;;2.70;2.60;;;15.50;99.90;;;;;;5018096;28;20315;-65
2023/09/21 06:55:51;;;;;;;3.57;2.83;;;15.40;99.90;;;;;;5037889;28;20223;-65
2023/09/21 06:58:20;;;;;;;3.00;2.77;;;15.50;99.90;;;;;;5021498;28;20221;-65
2023/09/21 07:00:49;;;;;;;5.27;3.30;;;15.60;99.90;;;;;;5021999;28;20582;-65
2023/09/21 07:03:19;;;;;;;3.17;2.97;;;15.70;99.90;;;;;;5025864;28;20187;-64
2023/09/21 07:05:48;;;;;;;4.23;2.70;;;15.70;99.90;;;;;;5023851;28;20202;-65
2023/09/21 07:08:18;;;;;;;4.60;2.70;;;15.60;99.90;;;;;;5022189;28;20737;-65
2023/09/21 07:10:48;;;;;;;4.07;3.17;;;15.60;99.90;;;;;;5018384;28;20233;-65
2023/09/21 07:13:19;;;;;;;3.00;2.80;;;15.50;99.90;;;;;;5021900;28;20223;-64
2023/09/21 07:15:49;;;;;;;3.33;3.07;;;15.50;99.90;;;;;;5018296;28;20223;-65
2023/09/21 07:18:18;;;;;;;3.63;3.10;;;15.50;99.90;;;;;;5020537;28;20199;-65
2023/09/21 07:20:46;;;;;;;3.50;3.27;;;15.50;99.90;;;;;;5020176;28;20215;-65
2023/09/21 07:23:15;;;;;;;6.13;3.23;;;15.60;99.90;;;;;;5018502;28;20225;-65
2023/09/21 07:25:44;;;;;;;3.40;3.10;;;15.60;99.90;;;;;;5022587;28;20322;-65
2023/09/21 07:28:13;;;;;;;3.37;3.13;;;15.60;99.90;;;;;;5019366;28;20689;-65
2023/09/21 07:30:43;;;;;;;4.13;3.40;;;15.60;99.90;;;;;;5022433;28;20231;-65
2023/09/21 07:33:11;;;;;;;4.17;3.23;;;15.60;99.90;;;;;;5022302;28;20185;-65
2023/09/21 07:35:41;;;;;;;4.47;2.90;;;15.70;99.90;;;;;;5021567;28;20548;-65
2023/09/21 07:38:09;;;;;;;4.37;2.60;;;15.60;99.90;;;;;;5022751;28;20595;-66
2023/09/21 07:40:38;;;;;;;3.97;2.90;;;15.50;99.90;;;;;;5023490;28;20230;-65
2023/09/21 07:43:06;;;;;;;4.23;2.80;;;15.50;99.90;;;;;;5021057;28;20409;-66
2023/09/21 07:45:36;;;;;;;6.80;2.80;;;15.50;99.90;;;;;;5044884;28;20229;-65
2023/09/21 07:48:05;;;;;;;5.03;3.20;;;15.50;99.90;;;;;;5028420;28;20295;-65
2023/09/21 07:50:36;;;;;;;3.63;3.10;;;15.40;99.90;;;;;;5006177;28;20224;-65
2023/09/21 07:53:05;;;;;;;6.70;3.80;;;15.40;99.90;;;;;;5022937;28;20628;-65
2023/09/21 07:55:34;;;;;;;6.20;3.60;;;15.40;99.90;;;;;;5022844;28;20225;-65
2023/09/21 07:58:02;;;;;;;4.47;3.40;;;15.40;99.90;;;;;;5023765;28;20329;-65
2023/09/21 08:00:31;;;;;;;5.03;3.63;;;15.40;99.90;;;;;;5029179;28;20241;-65
2023/09/21 08:03:02;;;;;;;6.00;3.80;;;15.40;99.90;;;;;;5027822;28;20221;-65
2023/09/21 08:05:32;;;;;;;10.57;3.77;;;15.40;99.90;;;;;;5025520;28;20243;-66
2023/09/21 08:08:01;;;;;;;5.77;3.80;;;15.50;99.90;;;;;;5025762;28;20216;-65
2023/09/21 08:10:32;;;;;;;7.07;4.10;;;15.50;99.90;;;;;;5027174;28;20209;-65
2023/09/21 08:13:02;;;;;;;5.37;3.90;;;15.50;99.90;;;;;;5029318;28;20219;-65
2023/09/21 08:15:30;;;;;;;5.20;4.30;;;15.60;99.90;;;;;;5023792;28;20243;-65
2023/09/21 08:18:00;;;;;;;6.80;4.40;;;15.50;99.90;;;;;;5024237;28;20202;-65
2023/09/21 08:20:32;;;;;;;4.50;4.10;;;15.50;99.90;;;;;;5021351;28;20224;-65
2023/09/21 08:23:01;;;;;;;5.50;5.00;;;15.50;99.90;;;;;;5026243;28;20242;-65
2023/09/21 08:25:29;;;;;;;9.13;5.00;;;15.50;99.90;;;;;;5041026;28;20226;-66
2023/09/21 08:27:59;;;;;;;5.97;4.23;;;15.50;99.90;;;;;;5024324;28;20340;-65
2023/09/21 08:30:28;;;;;;;4.37;3.70;;;15.50;99.90;;;;;;5023699;28;20619;-65
2023/09/21 08:32:56;;;;;;;4.37;3.97;;;15.60;99.90;;;;;;5026621;28;20579;-66
2023/09/21 08:35:26;;;;;;;3.70;3.50;;;15.60;99.90;;;;;;5036185;28;20214;-66
2023/09/21 08:37:56;;;;;;;3.30;3.00;;;15.60;99.90;;;;;;5029978;28;20230;-66
2023/09/21 08:40:25;;;;;;;37.33;4.03;;;15.60;99.90;;;;;;5024061;28;20784;-66
2023/09/21 08:42:55;;;;;;;3.00;2.80;;;15.50;99.90;;;;;;5024985;28;20245;-65
2023/09/21 08:45:25;;;;;;;2.97;2.50;;;15.50;99.90;;;;;;5022371;28;20250;-66
2023/09/21 08:47:54;;;;;;;7.60;2.90;;;15.50;99.90;;;;;;5024572;28;20201;-65
2023/09/21 08:50:25;;;;;;;31.83;4.00;;;15.40;99.90;;;;;;5026502;28;20245;-66
2023/09/21 08:52:57;;;;;;;2.77;2.57;;;15.30;99.90;;;;;;5020672;28;20258;-65
2023/09/21 08:55:27;;;;;;;5.03;2.90;;;15.30;99.90;;;;;;5023096;28;20227;-65
2023/09/21 08:57:56;;;;;;;2.63;2.53;;;15.30;99.90;;;;;;5025476;28;20212;-65
2023/09/21 09:00:28;;;;;;;3.37;2.40;;;15.30;99.90;;;;;;5021130;28;20659;-65
2023/09/21 09:02:57;;;;;;;17.50;3.17;;;15.30;99.90;;;;;;5023279;28;20244;-66
2023/09/21 09:05:26;;;;;;;2.80;2.70;;;15.30;99.90;;;;;;5019755;28;20221;-65
2023/09/21 09:07:57;;;;;;;2.70;2.60;;;15.30;99.90;;;;;;5023134;28;20221;-65
2023/09/21 09:10:26;;;;;;;3.00;2.80;;;15.30;99.90;;;;;;5026049;28;20209;-65
2023/09/21 09:13:07;;;;;;;4.50;2.90;;;15.30;99.90;;;;;;5035802;28;20231;-65
2023/09/21 09:15:38;;;;;;;3.07;2.87;;;15.30;99.90;;;;;;5023331;28;20245;-65
2023/09/21 09:18:08;;;;;;;3.40;2.60;;;15.40;99.90;;;;;;5026572;28;20189;-64
2023/09/21 09:20:37;;;;;;;3.63;2.47;;;15.40;99.90;;;;;;5021566;28;20220;-66
2023/09/21 09:23:10;;;;;;;3.47;2.03;;;15.30;99.90;;;;;;5023077;28;20231;-65
2023/09/21 09:25:40;;;;;;;2.00;1.90;;;15.20;99.90;;;;;;5020344;28;20230;-66
2023/09/21 09:28:09;;;;;;;1.70;1.70;;;15.10;99.90;;;;;;5027016;28;20226;-66
2023/09/21 09:30:38;;;;;;;1.80;1.80;;;15.10;99.90;;;;;;5023104;28;20312;-66
2023/09/21 09:33:12;;;;;;;2.07;1.93;;;15.00;99.90;;;;;;5021800;28;20217;-66
2023/09/21 09:35:42;;;;;;;2.60;2.40;;;15.10;99.90;;;;;;5023219;28;20587;-65
2023/09/21 09:38:12;;;;;;;2.23;2.03;;;15.10;99.90;;;;;;5023853;28;20211;-66
2023/09/21 09:40:40;;;;;;;1.97;1.90;;;15.20;99.90;;;;;;5023376;28;20248;-65
2023/09/21 09:43:14;;;;;;;2.57;1.80;;;15.20;99.90;;;;;;5019972;28;20230;-65
2023/09/21 09:45:45;;;;;;;1.93;1.83;;;15.30;99.90;;;;;;5019586;28;20286;-66
2023/09/21 09:48:19;;;;;;;2.10;1.70;;;15.40;99.90;;;;;;5025220;28;20187;-66
2023/09/21 09:50:57;;;;;;;1.60;1.60;;;15.40;99.90;;;;;;5021700;28;20287;-66
2023/09/21 09:53:28;;;;;;;1.50;1.40;;;15.50;99.90;;;;;;5018404;28;20624;-66
2023/09/21 09:56:00;;;;;;;1.33;1.33;;;15.50;99.90;;;;;;5020470;28;20219;-66
2023/09/21 09:58:29;;;;;;;1.43;1.40;;;15.50;99.90;;;;;;5021901;28;20287;-65
2023/09/21 10:01:00;;;;;;;1.60;1.60;;;15.50;99.90;;;;;;5021669;28;20225;-65
2023/09/21 10:03:33;;;;;;;1.63;1.53;;;15.60;99.90;;;;;;5021979;28;20225;-65
2023/09/21 10:06:02;;;;;;;2.93;1.60;;;15.50;99.90;;;;;;5022843;28;20194;-66
2023/09/21 10:08:33;;;;;;;1.77;1.67;;;15.50;99.90;;;;;;5020407;28;20252;-66
2023/09/21 10:11:03;;;;;;;1.70;1.60;;;15.60;99.90;;;;;;5020781;28;20216;-65
2023/09/21 10:13:32;;;;;;;2.03;1.93;;;15.60;99.90;;;;;;5024503;28;20218;-66
2023/09/21 10:16:03;;;;;;;2.83;1.70;;;15.60;99.90;;;;;;5023643;28;20234;-66
2023/09/21 10:18:42;;;;;;;2.27;1.87;;;15.70;99.90;;;;;;5022907;28;20630;-65
2023/09/21 10:21:22;;;;;;;1.80;1.80;;;15.70;99.90;;;;;;5019271;28;20268;-65
2023/09/21 10:24:07;;;;;;;2.20;2.10;;;15.70;99.90;;;;;;5023406;28;20190;-66
2023/09/21 10:26:38;;;;;;;2.17;2.00;;;15.60;99.90;;;;;;5023251;28;20214;-65
2023/09/21 10:29:08;;;;;;;2.27;1.90;;;15.60;99.90;;;;;;5022572;28;20641;-65
2023/09/21 10:31:39;;;;;;;2.33;1.60;;;15.60;99.90;;;;;;5023199;28;20235;-66
2023/09/21 10:34:13;;;;;;;4.73;1.73;;;15.60;99.90;;;;;;5018786;28;20245;-65
2023/09/21 10:36:50;;;;;;;1.77;1.67;;;15.40;99.90;;;;;;5021787;28;20221;-65
2023/09/21 10:39:29;;;;;;;2.23;1.80;;;15.30;99.90;;;;;;5022810;28;20204;-65
2023/09/21 10:42:33;;;;;;;1.90;1.80;;;15.30;99.90;;;;;;5020339;28;20204;-65
2023/09/21 10:45:07;;;;;;;3.60;2.00;;;15.40;99.90;;;;;;5016616;28;20232;-65
2023/09/21 10:47:49;;;;;;;3.23;2.23;;;15.30;99.90;;;;;;5023599;28;20667;-65
2023/09/21 10:50:20;;;;;;;5.97;2.17;;;15.30;99.90;;;;;;5020699;28;20226;-65
2023/09/21 10:52:51;;;;;;;2.40;1.80;;;15.30;99.90;;;;;;5021013;28;20249;-65
2023/09/21 10:55:22;;;;;;;3.07;2.17;;;15.30;99.90;;;;;;5020354;28;20310;-65
2023/09/21 10:57:53;;;;;;;1.93;1.80;;;15.20;99.90;;;;;;5021711;28;20235;-65
2023/09/21 11:00:22;;;;;;;2.23;1.93;;;15.20;99.90;;;;;;5019496;28;20203;-65
2023/09/21 11:02:53;;;;;;;2.17;2.03;;;15.10;99.90;;;;;;5027395;28;20221;-65
2023/09/21 11:05:22;;;;;;;1.90;1.80;;;15.10;99.90;;;;;;5021088;28;20228;-65
2023/09/21 11:07:52;;;;;;;2.17;1.97;;;15.20;99.90;;;;;;5021385;28;20227;-65
2023/09/21 11:10:22;;;;;;;3.10;2.40;;;15.40;99.90;;;;;;5021692;28;20221;-65
2023/09/21 11:12:51;;;;;;;2.43;2.13;;;15.40;99.90;;;;;;5022574;28;20236;-65
2023/09/21 11:15:20;;;;;;;3.43;2.40;;;15.50;99.90;;;;;;5019675;28;20191;-65
2023/09/21 11:17:49;;;;;;;3.10;2.53;;;15.40;99.90;;;;;;5020830;28;20236;-65
2023/09/21 11:20:19;;;;;;;2.80;2.60;;;15.40;99.90;;;;;;5025964;28;20309;-65
2023/09/21 11:22:50;;;;;;;5.30;2.73;;;15.50;99.90;;;;;;5027283;28;20224;-65
2023/09/21 11:25:22;;;;;;;4.40;3.03;;;15.50;99.90;;;;;;5025493;28;20220;-65
2023/09/21 11:27:53;;;;;;;3.70;3.40;;;15.80;99.90;;;;;;5024570;28;22205;-65
2023/09/21 11:30:23;;;;;;;5.30;3.30;;;16.00;99.90;;;;;;5024214;28;20682;-65
2023/09/21 11:32:54;;;;;;;4.50;2.80;;;16.10;99.90;;;;;;5026702;28;20709;-65
2023/09/21 11:35:24;;;;;;;4.93;2.63;;;16.30;99.90;;;;;;5023799;28;20241;-65
2023/09/21 11:37:53;;;;;;;2.40;2.20;;;16.40;99.90;;;;;;5025271;28;20243;-65
2023/09/21 11:40:24;;;;;;;4.37;2.10;;;16.50;99.90;;;;;;5024429;28;20232;-65
2023/09/21 11:42:59;;;;;;;2.27;2.27;;;16.40;99.90;;;;;;5029943;28;20231;-65
2023/09/21 11:45:28;;;;;;;3.63;2.40;;;16.40;99.90;;;;;;5023961;28;20246;-64
2023/09/21 11:47:58;;;;;;;2.47;2.37;;;16.30;99.90;;;;;;5026802;28;20251;-66
2023/09/21 11:50:30;;;;;;;2.80;2.60;;;16.30;99.90;;;;;;5025176;28;20809;-64
2023/09/21 11:53:00;;;;;;;2.67;2.57;;;16.20;99.90;;;;;;5024573;28;20259;-64
2023/09/21 11:55:31;;;;;;;2.33;2.20;;;16.20;99.90;;;;;;5021251;28;20220;-65
2023/09/21 11:58:09;;;;;;;2.80;2.60;;;16.20;99.90;;;;;;5022903;28;20303;-65
2023/09/21 12:00:45;;;;;;;3.53;2.53;;;16.20;99.90;;;;;;5025099;28;20258;-65
2023/09/21 12:03:21;;;;;;;3.20;2.40;;;16.20;99.90;;;;;;5020795;28;20223;-64
2023/09/21 12:05:55;;;;;;;2.70;2.50;;;16.30;99.90;;;;;;5025267;28;20557;-65
2023/09/21 12:08:25;;;;;;;2.50;2.40;;;16.20;99.90;;;;;;5022892;28;20703;-65
2023/09/21 12:10:54;;;;;;;2.73;2.53;;;16.30;99.90;;;;;;5026250;28;20309;-65
2023/09/21 12:13:24;;;;;;;3.10;2.90;;;16.20;99.90;;;;;;5025553;28;20231;-65
2023/09/21 12:15:55;;;;;;;2.90;2.80;;;16.20;99.90;;;;;;5043232;28;20688;-64
2023/09/21 12:18:28;;;;;;;2.57;2.47;;;16.20;99.90;;;;;;5027042;28;20698;-65
2023/09/21 12:21:08;;;;;;;3.10;2.90;;;16.30;99.90;;;;;;5022888;28;20269;-64
2023/09/21 12:23:37;;;;;;;3.23;3.03;;;16.30;99.90;;;;;;5024191;28;20279;-64
2023/09/21 12:26:05;;;;;;;2.83;2.73;;;16.30;99.90;;;;;;5023787;28;20225;-65
2023/09/21 12:28:36;;;;;;;3.03;2.93;;;16.30;99.90;;;;;;5022056;28;20228;-65
2023/09/21 12:31:05;;;;;;;3.40;3.20;;;16.20;99.90;;;;;;5023907;28;20240;-65
2023/09/21 12:33:35;;;;;;;3.17;2.87;;;16.20;99.90;;;;;;5024039;28;20247;-65
2023/09/21 12:36:13;;;;;;;3.07;2.90;;;16.20;99.90;;;;;;5021448;28;20193;-64
2023/09/21 12:38:58;;;;;;;3.20;3.00;;;16.30;99.90;;;;;;5026147;28;20195;-65
2023/09/21 12:41:29;;;;;;;3.20;2.90;;;16.40;99.90;;;;;;5028873;28;20246;-65
2023/09/21 12:43:59;;;;;;;3.13;2.90;;;16.50;99.90;;;;;;5024718;28;20309;-65
2023/09/21 12:46:29;;;;;;;3.00;2.80;;;16.50;99.90;;;;;;5024840;28;20220;-65
2023/09/21 12:48:58;;;;;;;4.40;2.80;;;16.50;99.90;;;;;;5026808;28;20225;-65
2023/09/21 12:51:28;;;;;;;3.27;3.10;;;16.50;99.90;;;;;;5022583;28;20217;-65
2023/09/21 12:53:57;;;;;;;3.10;2.80;;;16.50;99.90;;;;;;5023889;28;20224;-65
2023/09/21 12:56:26;;;;;;;4.17;3.30;;;16.60;99.90;;;;;;5021429;28;20594;-65
2023/09/21 12:58:55;;;;;;;3.17;3.00;;;16.50;99.90;;;;;;5039324;28;20223;-65
2023/09/21 13:01:26;;;;;;;2.80;2.60;;;16.70;99.90;;;;;;5025633;28;20228;-65